sensor_id;sensor_type;location;lat;lon;timestamp;P1;durP1;ratioP1;P2;durP2;ratioP2
48317;SDS011;34127;47.412;9.730;2022-09-09T00:02:10;6.25;;;1.85;;
48317;SDS011;34127;47.412;9.730;2022-09-09T00:04:40;4.18;;;2.00;;
48317;SDS011;34127;47.412;9.730;2022-09-09T00:07:13;4.13;;;2.00;;
48317;SDS011;34127;47.412;9.730;2022-09-09T00:09:48;6.65;;;2.10;;
48317;SDS011;34127;47.412;9.730;2022-09-09T00:14:56;6.57;;;2.28;;
48317;SDS011;34127;47.412;9.730;2022-09-09T00:22:43;9.77;;;2.25;;
48317;SDS011;34127;47.412;9.730;2022-09-09T00:25:14;8.52;;;2.45;;
48317;SDS011;34127;47.412;9.730;2022-09-09T00:27:45;6.28;;;2.60;;
48317;SDS011;34127;47.412;9.730;2022-09-09T00:30:23;5.80;;;2.75;;
48317;SDS011;34127;47.412;9.730;2022-09-09T00:32:50;4.72;;;2.67;;
48317;SDS011;34127;47.412;9.730;2022-09-09T00:35:53;5.82;;;2.55;;
48317;SDS011;34127;47.412;9.730;2022-09-09T00:38:16;4.70;;;2.38;;
48317;SDS011;34127;47.412;9.730;2022-09-09T00:40:53;7.43;;;2.58;;
48317;SDS011;34127;47.412;9.730;2022-09-09T00:48:26;6.25;;;2.70;;
48317;SDS011;34127;47.412;9.730;2022-09-09T00:50:56;4.22;;;2.30;;
48317;SDS011;34127;47.412;9.730;2022-09-09T00:56:13;6.20;;;2.22;;
48317;SDS011;34127;47.412;9.730;2022-09-09T00:58:42;7.22;;;2.67;;
48317;SDS011;34127;47.412;9.730;2022-09-09T01:01:10;4.68;;;2.40;;
48317;SDS011;34127;47.412;9.730;2022-09-09T01:11:19;7.88;;;2.25;;
48317;SDS011;34127;47.412;9.730;2022-09-09T01:13:46;5.43;;;2.10;;
48317;SDS011;34127;47.412;9.730;2022-09-09T01:16:12;5.10;;;1.98;;
48317;SDS011;34127;47.412;9.730;2022-09-09T01:18:40;5.57;;;2.40;;
48317;SDS011;34127;47.412;9.730;2022-09-09T01:28:52;3.75;;;2.00;;
48317;SDS011;34127;47.412;9.730;2022-09-09T01:31:20;4.68;;;1.92;;
48317;SDS011;34127;47.412;9.730;2022-09-09T01:33:47;19.80;;;4.05;;
48317;SDS011;34127;47.412;9.730;2022-09-09T01:36:23;6.03;;;1.70;;
48317;SDS011;34127;47.412;9.730;2022-09-09T01:38:51;4.05;;;1.50;;
48317;SDS011;34127;47.412;9.730;2022-09-09T01:41:17;4.47;;;1.65;;
48317;SDS011;34127;47.412;9.730;2022-09-09T01:43:43;3.75;;;1.73;;
48317;SDS011;34127;47.412;9.730;2022-09-09T01:46:09;3.47;;;1.58;;
48317;SDS011;34127;47.412;9.730;2022-09-09T01:48:36;4.15;;;1.75;;
48317;SDS011;34127;47.412;9.730;2022-09-09T01:51:02;4.10;;;1.35;;
48317;SDS011;34127;47.412;9.730;2022-09-09T01:53:28;5.07;;;1.70;;
48317;SDS011;34127;47.412;9.730;2022-09-09T02:01:21;6.05;;;1.85;;
48317;SDS011;34127;47.412;9.730;2022-09-09T02:03:52;4.03;;;1.92;;
48317;SDS011;34127;47.412;9.730;2022-09-09T02:06:33;5.28;;;1.83;;
48317;SDS011;34127;47.412;9.730;2022-09-09T02:09:02;4.15;;;2.10;;
48317;SDS011;34127;47.412;9.730;2022-09-09T02:11:30;6.65;;;2.00;;
48317;SDS011;34127;47.412;9.730;2022-09-09T02:13:57;6.05;;;1.95;;
48317;SDS011;34127;47.412;9.730;2022-09-09T02:19:09;7.13;;;2.00;;
48317;SDS011;34127;47.412;9.730;2022-09-09T02:21:38;5.85;;;1.90;;
48317;SDS011;34127;47.412;9.730;2022-09-09T02:24:06;4.80;;;2.00;;
48317;SDS011;34127;47.412;9.730;2022-09-09T02:26:35;5.53;;;1.90;;
48317;SDS011;34127;47.412;9.730;2022-09-09T02:29:02;5.00;;;2.13;;
48317;SDS011;34127;47.412;9.730;2022-09-09T02:31:29;4.10;;;1.98;;
48317;SDS011;34127;47.412;9.730;2022-09-09T02:33:57;3.90;;;2.10;;
48317;SDS011;34127;47.412;9.730;2022-09-09T02:36:26;6.95;;;2.53;;
48317;SDS011;34127;47.412;9.730;2022-09-09T02:38:54;8.27;;;2.40;;
48317;SDS011;34127;47.412;9.730;2022-09-09T02:41:22;6.57;;;2.47;;
48317;SDS011;34127;47.412;9.730;2022-09-09T02:43:49;4.75;;;2.05;;
48317;SDS011;34127;47.412;9.730;2022-09-09T02:49:03;6.00;;;2.40;;
48317;SDS011;34127;47.412;9.730;2022-09-09T02:51:35;4.50;;;2.40;;
48317;SDS011;34127;47.412;9.730;2022-09-09T02:54:10;4.68;;;2.47;;
48317;SDS011;34127;47.412;9.730;2022-09-09T02:56:42;5.32;;;2.50;;
48317;SDS011;34127;47.412;9.730;2022-09-09T02:59:09;6.78;;;2.50;;
48317;SDS011;34127;47.412;9.730;2022-09-09T03:01:36;4.63;;;2.38;;
48317;SDS011;34127;47.412;9.730;2022-09-09T03:04:05;4.28;;;2.28;;
48317;SDS011;34127;47.412;9.730;2022-09-09T03:06:31;6.80;;;2.80;;
48317;SDS011;34127;47.412;9.730;2022-09-09T03:08:57;6.10;;;2.60;;
48317;SDS011;34127;47.412;9.730;2022-09-09T03:11:25;5.20;;;2.78;;
48317;SDS011;34127;47.412;9.730;2022-09-09T03:13:53;18.17;;;3.83;;
48317;SDS011;34127;47.412;9.730;2022-09-09T03:16:21;4.40;;;2.60;;
48317;SDS011;34127;47.412;9.730;2022-09-09T03:18:47;6.05;;;2.47;;
48317;SDS011;34127;47.412;9.730;2022-09-09T03:21:13;6.47;;;2.80;;
48317;SDS011;34127;47.412;9.730;2022-09-09T03:23:39;6.13;;;2.30;;
48317;SDS011;34127;47.412;9.730;2022-09-09T03:26:05;7.53;;;2.40;;
48317;SDS011;34127;47.412;9.730;2022-09-09T03:28:32;8.05;;;2.20;;
48317;SDS011;34127;47.412;9.730;2022-09-09T03:31:01;3.95;;;2.05;;
48317;SDS011;34127;47.412;9.730;2022-09-09T03:33:28;6.78;;;2.10;;
48317;SDS011;34127;47.412;9.730;2022-09-09T03:35:54;6.40;;;2.10;;
48317;SDS011;34127;47.412;9.730;2022-09-09T03:38:22;6.13;;;2.83;;
48317;SDS011;34127;47.412;9.730;2022-09-09T03:40:52;6.63;;;2.20;;
48317;SDS011;34127;47.412;9.730;2022-09-09T03:43:22;4.28;;;2.35;;
48317;SDS011;34127;47.412;9.730;2022-09-09T03:45:49;5.07;;;2.00;;
48317;SDS011;34127;47.412;9.730;2022-09-09T03:48:16;8.32;;;2.20;;
48317;SDS011;34127;47.412;9.730;2022-09-09T03:50:46;6.72;;;2.35;;
48317;SDS011;34127;47.412;9.730;2022-09-09T03:53:12;3.75;;;2.38;;
48317;SDS011;34127;47.412;9.730;2022-09-09T03:55:39;7.65;;;2.47;;
48317;SDS011;34127;47.412;9.730;2022-09-09T03:58:08;5.25;;;2.35;;
48317;SDS011;34127;47.412;9.730;2022-09-09T04:00:35;5.22;;;2.33;;
48317;SDS011;34127;47.412;9.730;2022-09-09T04:03:01;5.28;;;2.25;;
48317;SDS011;34127;47.412;9.730;2022-09-09T04:05:28;4.45;;;2.10;;
48317;SDS011;34127;47.412;9.730;2022-09-09T04:07:54;5.72;;;2.15;;
48317;SDS011;34127;47.412;9.730;2022-09-09T04:10:20;4.85;;;2.20;;
48317;SDS011;34127;47.412;9.730;2022-09-09T04:12:46;5.03;;;1.88;;
48317;SDS011;34127;47.412;9.730;2022-09-09T04:15:12;5.35;;;2.58;;
48317;SDS011;34127;47.412;9.730;2022-09-09T04:17:38;3.92;;;2.20;;
48317;SDS011;34127;47.412;9.730;2022-09-09T04:20:04;8.32;;;1.95;;
48317;SDS011;34127;47.412;9.730;2022-09-09T04:22:33;6.57;;;2.45;;
48317;SDS011;34127;47.412;9.730;2022-09-09T04:24:59;11.68;;;2.30;;
48317;SDS011;34127;47.412;9.730;2022-09-09T04:27:25;4.47;;;2.05;;
48317;SDS011;34127;47.412;9.730;2022-09-09T04:29:51;4.88;;;2.00;;
48317;SDS011;34127;47.412;9.730;2022-09-09T04:32:17;4.95;;;1.83;;
48317;SDS011;34127;47.412;9.730;2022-09-09T04:34:43;9.00;;;2.03;;
48317;SDS011;34127;47.412;9.730;2022-09-09T04:37:09;3.78;;;1.90;;
48317;SDS011;34127;47.412;9.730;2022-09-09T04:39:35;4.80;;;2.00;;
48317;SDS011;34127;47.412;9.730;2022-09-09T04:42:02;4.95;;;2.00;;
48317;SDS011;34127;47.412;9.730;2022-09-09T04:44:28;5.55;;;2.22;;
48317;SDS011;34127;47.412;9.730;2022-09-09T04:46:55;6.10;;;2.03;;
48317;SDS011;34127;47.412;9.730;2022-09-09T04:49:21;7.00;;;2.00;;
48317;SDS011;34127;47.412;9.730;2022-09-09T04:51:50;5.88;;;1.95;;
48317;SDS011;34127;47.412;9.730;2022-09-09T04:54:16;4.30;;;1.92;;
48317;SDS011;34127;47.412;9.730;2022-09-09T04:56:43;4.00;;;1.90;;
48317;SDS011;34127;47.412;9.730;2022-09-09T04:59:09;5.03;;;2.00;;
48317;SDS011;34127;47.412;9.730;2022-09-09T05:01:35;3.75;;;2.35;;
48317;SDS011;34127;47.412;9.730;2022-09-09T05:04:02;4.65;;;1.80;;
48317;SDS011;34127;47.412;9.730;2022-09-09T05:06:28;5.40;;;1.75;;
48317;SDS011;34127;47.412;9.730;2022-09-09T05:08:56;3.75;;;1.60;;
48317;SDS011;34127;47.412;9.730;2022-09-09T05:11:24;4.40;;;1.60;;
48317;SDS011;34127;47.412;9.730;2022-09-09T05:13:52;12.00;;;3.08;;
48317;SDS011;34127;47.412;9.730;2022-09-09T05:16:19;5.68;;;1.80;;
48317;SDS011;34127;47.412;9.730;2022-09-09T05:18:45;3.55;;;1.70;;
48317;SDS011;34127;47.412;9.730;2022-09-09T05:21:12;2.70;;;1.40;;
48317;SDS011;34127;47.412;9.730;2022-09-09T05:23:38;4.10;;;1.67;;
48317;SDS011;34127;47.412;9.730;2022-09-09T05:26:05;6.13;;;1.83;;
48317;SDS011;34127;47.412;9.730;2022-09-09T05:28:33;4.45;;;1.52;;
48317;SDS011;34127;47.412;9.730;2022-09-09T05:31:01;3.38;;;1.65;;
48317;SDS011;34127;47.412;9.730;2022-09-09T05:33:34;3.53;;;1.60;;
48317;SDS011;34127;47.412;9.730;2022-09-09T05:36:08;4.30;;;1.65;;
48317;SDS011;34127;47.412;9.730;2022-09-09T05:38:35;4.68;;;1.50;;
48317;SDS011;34127;47.412;9.730;2022-09-09T05:41:03;6.20;;;1.80;;
48317;SDS011;34127;47.412;9.730;2022-09-09T05:43:29;3.75;;;1.65;;
48317;SDS011;34127;47.412;9.730;2022-09-09T05:46:06;5.25;;;1.60;;
48317;SDS011;34127;47.412;9.730;2022-09-09T05:48:39;4.07;;;1.60;;
48317;SDS011;34127;47.412;9.730;2022-09-09T05:51:07;3.72;;;1.60;;
48317;SDS011;34127;47.412;9.730;2022-09-09T05:53:34;6.90;;;1.70;;
48317;SDS011;34127;47.412;9.730;2022-09-09T05:56:04;5.57;;;1.70;;
48317;SDS011;34127;47.412;9.730;2022-09-09T05:58:34;3.97;;;1.63;;
48317;SDS011;34127;47.412;9.730;2022-09-09T06:01:04;4.20;;;1.60;;
48317;SDS011;34127;47.412;9.730;2022-09-09T06:03:31;9.30;;;3.92;;
48317;SDS011;34127;47.412;9.730;2022-09-09T06:06:01;11.23;;;4.55;;
48317;SDS011;34127;47.412;9.730;2022-09-09T06:08:30;20.58;;;8.25;;
48317;SDS011;34127;47.412;9.730;2022-09-09T06:11:03;11.80;;;4.43;;
48317;SDS011;34127;47.412;9.730;2022-09-09T06:13:30;8.27;;;3.88;;
48317;SDS011;34127;47.412;9.730;2022-09-09T06:15:56;11.18;;;4.10;;
48317;SDS011;34127;47.412;9.730;2022-09-09T06:18:23;9.30;;;4.18;;
48317;SDS011;34127;47.412;9.730;2022-09-09T06:20:57;4.60;;;1.98;;
48317;SDS011;34127;47.412;9.730;2022-09-09T06:23:24;5.15;;;1.67;;
48317;SDS011;34127;47.412;9.730;2022-09-09T06:25:51;5.53;;;1.85;;
48317;SDS011;34127;47.412;9.730;2022-09-09T06:28:17;5.05;;;1.70;;
48317;SDS011;34127;47.412;9.730;2022-09-09T06:30:44;6.32;;;2.10;;
48317;SDS011;34127;47.412;9.730;2022-09-09T06:33:10;4.75;;;1.63;;
48317;SDS011;34127;47.412;9.730;2022-09-09T06:35:36;4.85;;;1.55;;
48317;SDS011;34127;47.412;9.730;2022-09-09T06:38:02;4.20;;;1.42;;
48317;SDS011;34127;47.412;9.730;2022-09-09T06:40:28;3.38;;;1.38;;
48317;SDS011;34127;47.412;9.730;2022-09-09T06:42:58;3.10;;;1.33;;
48317;SDS011;34127;47.412;9.730;2022-09-09T06:48:22;4.32;;;1.58;;
48317;SDS011;34127;47.412;9.730;2022-09-09T06:50:48;2.80;;;1.40;;
48317;SDS011;34127;47.412;9.730;2022-09-09T06:53:18;7.72;;;2.13;;
48317;SDS011;34127;47.412;9.730;2022-09-09T06:55:44;4.20;;;1.60;;
48317;SDS011;34127;47.412;9.730;2022-09-09T06:58:11;5.80;;;1.80;;
48317;SDS011;34127;47.412;9.730;2022-09-09T07:00:37;7.82;;;1.90;;
48317;SDS011;34127;47.412;9.730;2022-09-09T07:03:03;6.72;;;2.20;;
48317;SDS011;34127;47.412;9.730;2022-09-09T07:05:31;6.90;;;1.90;;
48317;SDS011;34127;47.412;9.730;2022-09-09T07:07:57;7.80;;;2.50;;
48317;SDS011;34127;47.412;9.730;2022-09-09T07:10:24;5.35;;;2.38;;
48317;SDS011;34127;47.412;9.730;2022-09-09T07:12:50;5.60;;;2.40;;
48317;SDS011;34127;47.412;9.730;2022-09-09T07:15:19;6.47;;;2.50;;
48317;SDS011;34127;47.412;9.730;2022-09-09T07:17:48;5.30;;;2.72;;
48317;SDS011;34127;47.412;9.730;2022-09-09T07:20:14;15.77;;;6.07;;
48317;SDS011;34127;47.412;9.730;2022-09-09T07:22:40;35.95;;;12.35;;
48317;SDS011;34127;47.412;9.730;2022-09-09T07:25:07;18.83;;;5.07;;
48317;SDS011;34127;47.412;9.730;2022-09-09T07:27:33;8.73;;;3.33;;
48317;SDS011;34127;47.412;9.730;2022-09-09T07:29:59;7.55;;;2.90;;
48317;SDS011;34127;47.412;9.730;2022-09-09T07:32:27;5.55;;;2.40;;
48317;SDS011;34127;47.412;9.730;2022-09-09T07:34:55;10.90;;;3.13;;
48317;SDS011;34127;47.412;9.730;2022-09-09T07:37:23;12.77;;;2.75;;
48317;SDS011;34127;47.412;9.730;2022-09-09T07:39:49;10.38;;;3.30;;
48317;SDS011;34127;47.412;9.730;2022-09-09T07:42:16;4.97;;;1.77;;
48317;SDS011;34127;47.412;9.730;2022-09-09T07:44:42;5.90;;;1.95;;
48317;SDS011;34127;47.412;9.730;2022-09-09T07:47:08;7.13;;;2.05;;
48317;SDS011;34127;47.412;9.730;2022-09-09T07:49:34;4.43;;;2.17;;
48317;SDS011;34127;47.412;9.730;2022-09-09T07:52:00;6.20;;;2.33;;
48317;SDS011;34127;47.412;9.730;2022-09-09T07:54:27;5.07;;;1.88;;
48317;SDS011;34127;47.412;9.730;2022-09-09T07:56:53;5.80;;;2.70;;
48317;SDS011;34127;47.412;9.730;2022-09-09T07:59:19;4.55;;;1.77;;
48317;SDS011;34127;47.412;9.730;2022-09-09T08:01:46;4.63;;;1.70;;
48317;SDS011;34127;47.412;9.730;2022-09-09T08:04:14;5.60;;;1.60;;
48317;SDS011;34127;47.412;9.730;2022-09-09T08:06:46;4.25;;;1.75;;
48317;SDS011;34127;47.412;9.730;2022-09-09T08:09:12;4.47;;;2.30;;
48317;SDS011;34127;47.412;9.730;2022-09-09T08:11:39;6.60;;;1.80;;
48317;SDS011;34127;47.412;9.730;2022-09-09T08:14:06;5.70;;;1.73;;
48317;SDS011;34127;47.412;9.730;2022-09-09T08:16:33;5.60;;;1.75;;
48317;SDS011;34127;47.412;9.730;2022-09-09T08:19:01;3.40;;;1.63;;
48317;SDS011;34127;47.412;9.730;2022-09-09T08:21:29;3.35;;;1.48;;
48317;SDS011;34127;47.412;9.730;2022-09-09T08:23:57;5.85;;;1.70;;
48317;SDS011;34127;47.412;9.730;2022-09-09T08:26:24;6.20;;;1.80;;
48317;SDS011;34127;47.412;9.730;2022-09-09T08:28:52;4.03;;;1.77;;
48317;SDS011;34127;47.412;9.730;2022-09-09T08:31:19;5.07;;;1.98;;
48317;SDS011;34127;47.412;9.730;2022-09-09T08:33:46;3.42;;;1.50;;
48317;SDS011;34127;47.412;9.730;2022-09-09T08:36:19;3.60;;;1.98;;
48317;SDS011;34127;47.412;9.730;2022-09-09T08:38:50;4.30;;;1.67;;
48317;SDS011;34127;47.412;9.730;2022-09-09T08:42:04;4.35;;;1.90;;
48317;SDS011;34127;47.412;9.730;2022-09-09T08:49:16;5.78;;;1.90;;
48317;SDS011;34127;47.412;9.730;2022-09-09T08:51:45;5.20;;;2.55;;
48317;SDS011;34127;47.412;9.730;2022-09-09T08:54:11;4.03;;;1.90;;
48317;SDS011;34127;47.412;9.730;2022-09-09T08:56:37;7.60;;;2.40;;
48317;SDS011;34127;47.412;9.730;2022-09-09T08:59:04;10.23;;;2.58;;
48317;SDS011;34127;47.412;9.730;2022-09-09T09:01:44;9.32;;;4.85;;
48317;SDS011;34127;47.412;9.730;2022-09-09T09:07:16;4.80;;;2.55;;
48317;SDS011;34127;47.412;9.730;2022-09-09T09:12:33;6.35;;;2.03;;
48317;SDS011;34127;47.412;9.730;2022-09-09T09:15:01;4.90;;;2.10;;
48317;SDS011;34127;47.412;9.730;2022-09-09T09:17:27;6.10;;;2.83;;
48317;SDS011;34127;47.412;9.730;2022-09-09T09:19:56;7.10;;;2.22;;
48317;SDS011;34127;47.412;9.730;2022-09-09T09:24:56;5.93;;;1.90;;
48317;SDS011;34127;47.412;9.730;2022-09-09T09:27:34;5.05;;;1.88;;
48317;SDS011;34127;47.412;9.730;2022-09-09T09:30:01;5.13;;;1.80;;
48317;SDS011;34127;47.412;9.730;2022-09-09T09:32:28;5.97;;;1.60;;
48317;SDS011;34127;47.412;9.730;2022-09-09T09:34:57;5.75;;;1.83;;
48317;SDS011;34127;47.412;9.730;2022-09-09T09:37:30;8.18;;;2.20;;
48317;SDS011;34127;47.412;9.730;2022-09-09T09:40:07;21.50;;;7.53;;
48317;SDS011;34127;47.412;9.730;2022-09-09T09:42:34;20.25;;;7.63;;
48317;SDS011;34127;47.412;9.730;2022-09-09T09:45:07;10.05;;;3.88;;
48317;SDS011;34127;47.412;9.730;2022-09-09T09:47:35;5.05;;;2.45;;
48317;SDS011;34127;47.412;9.730;2022-09-09T09:50:01;5.45;;;2.13;;
48317;SDS011;34127;47.412;9.730;2022-09-09T09:52:29;6.90;;;2.70;;
48317;SDS011;34127;47.412;9.730;2022-09-09T09:54:57;4.93;;;2.20;;
48317;SDS011;34127;47.412;9.730;2022-09-09T09:57:28;4.70;;;1.90;;
48317;SDS011;34127;47.412;9.730;2022-09-09T10:00:12;5.80;;;2.05;;
48317;SDS011;34127;47.412;9.730;2022-09-09T10:02:39;5.05;;;2.10;;
48317;SDS011;34127;47.412;9.730;2022-09-09T10:05:27;5.80;;;2.40;;
48317;SDS011;34127;47.412;9.730;2022-09-09T10:08:10;5.45;;;2.70;;
48317;SDS011;34127;47.412;9.730;2022-09-09T10:10:49;5.70;;;2.40;;
48317;SDS011;34127;47.412;9.730;2022-09-09T10:18:22;4.15;;;2.00;;
48317;SDS011;34127;47.412;9.730;2022-09-09T10:20:57;3.70;;;1.85;;
48317;SDS011;34127;47.412;9.730;2022-09-09T10:28:53;5.13;;;1.60;;
48317;SDS011;34127;47.412;9.730;2022-09-09T10:38:40;2.80;;;1.40;;
48317;SDS011;34127;47.412;9.730;2022-09-09T10:57:31;6.03;;;2.23;;
48317;SDS011;34127;47.412;9.730;2022-09-09T11:00:01;4.85;;;1.67;;
48317;SDS011;34127;47.412;9.730;2022-09-09T11:02:30;5.22;;;1.90;;
48317;SDS011;34127;47.412;9.730;2022-09-09T11:07:34;4.47;;;2.03;;
48317;SDS011;34127;47.412;9.730;2022-09-09T11:10:05;3.33;;;1.80;;
48317;SDS011;34127;47.412;9.730;2022-09-09T11:12:32;3.97;;;1.80;;
48317;SDS011;34127;47.412;9.730;2022-09-09T11:15:08;3.35;;;1.60;;
48317;SDS011;34127;47.412;9.730;2022-09-09T11:17:45;4.22;;;1.90;;
48317;SDS011;34127;47.412;9.730;2022-09-09T11:20:12;3.85;;;1.90;;
48317;SDS011;34127;47.412;9.730;2022-09-09T11:22:44;4.00;;;2.03;;
48317;SDS011;34127;47.412;9.730;2022-09-09T11:30:37;3.58;;;1.60;;
48317;SDS011;34127;47.412;9.730;2022-09-09T11:38:27;4.07;;;1.80;;
48317;SDS011;34127;47.412;9.730;2022-09-09T11:41:03;4.72;;;1.80;;
48317;SDS011;34127;47.412;9.730;2022-09-09T11:43:32;3.92;;;1.70;;
48317;SDS011;34127;47.412;9.730;2022-09-09T11:46:00;4.57;;;1.63;;
48317;SDS011;34127;47.412;9.730;2022-09-09T11:53:30;3.85;;;1.40;;
48317;SDS011;34127;47.412;9.730;2022-09-09T11:56:00;2.75;;;1.45;;
48317;SDS011;34127;47.412;9.730;2022-09-09T11:58:26;3.17;;;1.40;;
48317;SDS011;34127;47.412;9.730;2022-09-09T12:00:54;4.47;;;1.65;;
48317;SDS011;34127;47.412;9.730;2022-09-09T12:05:58;5.85;;;1.98;;
48317;SDS011;34127;47.412;9.730;2022-09-09T12:08:28;5.82;;;1.55;;
48317;SDS011;34127;47.412;9.730;2022-09-09T12:10:55;4.97;;;1.63;;
48317;SDS011;34127;47.412;9.730;2022-09-09T12:13:25;4.50;;;1.70;;
48317;SDS011;34127;47.412;9.730;2022-09-09T12:15:56;2.95;;;1.58;;
48317;SDS011;34127;47.412;9.730;2022-09-09T12:18:23;3.13;;;1.50;;
48317;SDS011;34127;47.412;9.730;2022-09-09T12:20:52;3.83;;;1.50;;
48317;SDS011;34127;47.412;9.730;2022-09-09T12:23:30;3.70;;;1.63;;
48317;SDS011;34127;47.412;9.730;2022-09-09T12:28:26;3.08;;;1.40;;
48317;SDS011;34127;47.412;9.730;2022-09-09T12:33:51;2.95;;;1.40;;
48317;SDS011;34127;47.412;9.730;2022-09-09T12:36:29;3.20;;;1.40;;
48317;SDS011;34127;47.412;9.730;2022-09-09T12:38:57;3.20;;;1.13;;
48317;SDS011;34127;47.412;9.730;2022-09-09T12:41:26;2.45;;;1.27;;
48317;SDS011;34127;47.412;9.730;2022-09-09T12:44:06;1.67;;;1.10;;
48317;SDS011;34127;47.412;9.730;2022-09-09T12:48:59;3.67;;;1.10;;
48317;SDS011;34127;47.412;9.730;2022-09-09T12:51:26;3.17;;;1.30;;
48317;SDS011;34127;47.412;9.730;2022-09-09T12:54:04;2.38;;;1.30;;
48317;SDS011;34127;47.412;9.730;2022-09-09T12:56:31;2.85;;;1.23;;
48317;SDS011;34127;47.412;9.730;2022-09-09T12:58:58;3.15;;;1.30;;
48317;SDS011;34127;47.412;9.730;2022-09-09T13:01:29;2.92;;;1.40;;
48317;SDS011;34127;47.412;9.730;2022-09-09T13:03:56;2.60;;;1.30;;
48317;SDS011;34127;47.412;9.730;2022-09-09T13:08:52;5.38;;;2.00;;
48317;SDS011;34127;47.412;9.730;2022-09-09T13:11:29;3.95;;;1.40;;
48317;SDS011;34127;47.412;9.730;2022-09-09T13:13:57;3.33;;;1.40;;
48317;SDS011;34127;47.412;9.730;2022-09-09T13:16:31;4.40;;;1.40;;
48317;SDS011;34127;47.412;9.730;2022-09-09T13:19:01;2.80;;;1.30;;
48317;SDS011;34127;47.412;9.730;2022-09-09T13:21:34;2.97;;;1.30;;
48317;SDS011;34127;47.412;9.730;2022-09-09T13:24:02;2.92;;;1.33;;
48317;SDS011;34127;47.412;9.730;2022-09-09T13:26:29;3.60;;;1.30;;
48317;SDS011;34127;47.412;9.730;2022-09-09T13:29:07;2.70;;;1.33;;
48317;SDS011;34127;47.412;9.730;2022-09-09T13:31:34;3.08;;;1.30;;
48317;SDS011;34127;47.412;9.730;2022-09-09T13:34:25;3.13;;;1.30;;
48317;SDS011;34127;47.412;9.730;2022-09-09T13:36:52;2.42;;;1.20;;
48317;SDS011;34127;47.412;9.730;2022-09-09T13:39:20;2.90;;;1.35;;
48317;SDS011;34127;47.412;9.730;2022-09-09T13:41:48;3.38;;;2.00;;
48317;SDS011;34127;47.412;9.730;2022-09-09T13:44:17;2.63;;;1.35;;
48317;SDS011;34127;47.412;9.730;2022-09-09T13:46:45;2.45;;;1.20;;
48317;SDS011;34127;47.412;9.730;2022-09-09T13:51:41;1.73;;;1.10;;
48317;SDS011;34127;47.412;9.730;2022-09-09T13:54:08;5.85;;;1.50;;
48317;SDS011;34127;47.412;9.730;2022-09-09T13:56:35;5.53;;;1.40;;
48317;SDS011;34127;47.412;9.730;2022-09-09T13:59:02;3.05;;;1.25;;
48317;SDS011;34127;47.412;9.730;2022-09-09T14:01:29;2.92;;;1.45;;
48317;SDS011;34127;47.412;9.730;2022-09-09T14:03:55;2.92;;;1.30;;
48317;SDS011;34127;47.412;9.730;2022-09-09T14:06:21;3.72;;;1.80;;
48317;SDS011;34127;47.412;9.730;2022-09-09T14:08:51;3.30;;;1.30;;
48317;SDS011;34127;47.412;9.730;2022-09-09T14:11:17;2.03;;;1.20;;
48317;SDS011;34127;47.412;9.730;2022-09-09T14:13:44;2.97;;;1.20;;
48317;SDS011;34127;47.412;9.730;2022-09-09T14:16:10;1.92;;;1.27;;
48317;SDS011;34127;47.412;9.730;2022-09-09T14:18:36;2.00;;;1.10;;
48317;SDS011;34127;47.412;9.730;2022-09-09T14:21:03;3.55;;;1.48;;
48317;SDS011;34127;47.412;9.730;2022-09-09T14:23:30;3.83;;;1.30;;
48317;SDS011;34127;47.412;9.730;2022-09-09T14:25:57;4.10;;;1.20;;
48317;SDS011;34127;47.412;9.730;2022-09-09T14:28:23;3.25;;;1.40;;
48317;SDS011;34127;47.412;9.730;2022-09-09T14:30:50;2.63;;;1.40;;
48317;SDS011;34127;47.412;9.730;2022-09-09T14:33:16;4.05;;;1.42;;
48317;SDS011;34127;47.412;9.730;2022-09-09T14:35:42;3.15;;;1.30;;
48317;SDS011;34127;47.412;9.730;2022-09-09T14:38:09;3.30;;;1.40;;
48317;SDS011;34127;47.412;9.730;2022-09-09T14:40:35;2.22;;;1.20;;
48317;SDS011;34127;47.412;9.730;2022-09-09T14:43:02;2.95;;;1.38;;
48317;SDS011;34127;47.412;9.730;2022-09-09T14:45:29;2.70;;;1.35;;
48317;SDS011;34127;47.412;9.730;2022-09-09T14:47:56;2.70;;;1.10;;
48317;SDS011;34127;47.412;9.730;2022-09-09T14:50:22;5.07;;;1.40;;
48317;SDS011;34127;47.412;9.730;2022-09-09T14:52:48;2.90;;;1.40;;
48317;SDS011;34127;47.412;9.730;2022-09-09T14:55:15;3.35;;;1.40;;
48317;SDS011;34127;47.412;9.730;2022-09-09T14:57:42;1.90;;;1.33;;
48317;SDS011;34127;47.412;9.730;2022-09-09T15:00:09;4.03;;;1.23;;
48317;SDS011;34127;47.412;9.730;2022-09-09T15:02:36;2.80;;;1.33;;
48317;SDS011;34127;47.412;9.730;2022-09-09T15:05:03;2.70;;;1.40;;
48317;SDS011;34127;47.412;9.730;2022-09-09T15:07:29;1.92;;;1.10;;
48317;SDS011;34127;47.412;9.730;2022-09-09T15:09:57;3.15;;;1.30;;
48317;SDS011;34127;47.412;9.730;2022-09-09T15:12:23;4.63;;;1.40;;
48317;SDS011;34127;47.412;9.730;2022-09-09T15:14:49;2.45;;;1.10;;
48317;SDS011;34127;47.412;9.730;2022-09-09T15:17:16;3.25;;;1.30;;
48317;SDS011;34127;47.412;9.730;2022-09-09T15:19:42;2.75;;;1.20;;
48317;SDS011;34127;47.412;9.730;2022-09-09T15:22:08;2.65;;;1.20;;
48317;SDS011;34127;47.412;9.730;2022-09-09T15:24:35;3.78;;;1.40;;
48317;SDS011;34127;47.412;9.730;2022-09-09T15:27:01;2.85;;;1.50;;
48317;SDS011;34127;47.412;9.730;2022-09-09T15:29:27;2.38;;;1.30;;
48317;SDS011;34127;47.412;9.730;2022-09-09T15:31:54;2.33;;;1.20;;
48317;SDS011;34127;47.412;9.730;2022-09-09T15:34:20;3.47;;;1.40;;
48317;SDS011;34127;47.412;9.730;2022-09-09T15:36:46;2.25;;;1.40;;
48317;SDS011;34127;47.412;9.730;2022-09-09T15:39:14;2.60;;;1.30;;
48317;SDS011;34127;47.412;9.730;2022-09-09T15:41:41;2.95;;;1.50;;
48317;SDS011;34127;47.412;9.730;2022-09-09T15:44:08;5.55;;;1.50;;
48317;SDS011;34127;47.412;9.730;2022-09-09T15:46:58;3.20;;;1.33;;
48317;SDS011;34127;47.412;9.730;2022-09-09T15:49:24;4.13;;;1.40;;
48317;SDS011;34127;47.412;9.730;2022-09-09T15:51:55;4.18;;;1.65;;
48317;SDS011;34127;47.412;9.730;2022-09-09T15:54:23;3.50;;;1.50;;
48317;SDS011;34127;47.412;9.730;2022-09-09T15:56:51;3.60;;;1.80;;
48317;SDS011;34127;47.412;9.730;2022-09-09T15:59:17;3.40;;;1.40;;
48317;SDS011;34127;47.412;9.730;2022-09-09T16:01:44;3.83;;;1.50;;
48317;SDS011;34127;47.412;9.730;2022-09-09T16:04:10;4.72;;;1.40;;
48317;SDS011;34127;47.412;9.730;2022-09-09T16:06:37;3.70;;;1.40;;
48317;SDS011;34127;47.412;9.730;2022-09-09T16:09:04;2.08;;;1.27;;
48317;SDS011;34127;47.412;9.730;2022-09-09T16:11:32;3.53;;;1.40;;
48317;SDS011;34127;47.412;9.730;2022-09-09T16:13:58;3.05;;;1.33;;
48317;SDS011;34127;47.412;9.730;2022-09-09T16:16:26;4.18;;;1.48;;
48317;SDS011;34127;47.412;9.730;2022-09-09T16:19:02;3.05;;;1.80;;
48317;SDS011;34127;47.412;9.730;2022-09-09T16:21:30;6.20;;;2.05;;
48317;SDS011;34127;47.412;9.730;2022-09-09T16:23:57;3.60;;;1.40;;
48317;SDS011;34127;47.412;9.730;2022-09-09T16:26:24;2.70;;;1.60;;
48317;SDS011;34127;47.412;9.730;2022-09-09T16:28:50;2.58;;;1.40;;
48317;SDS011;34127;47.412;9.730;2022-09-09T16:31:20;2.88;;;1.45;;
48317;SDS011;34127;47.412;9.730;2022-09-09T16:33:47;5.00;;;1.60;;
48317;SDS011;34127;47.412;9.730;2022-09-09T16:36:14;6.05;;;1.75;;
48317;SDS011;34127;47.412;9.730;2022-09-09T16:38:41;4.68;;;1.50;;
48317;SDS011;34127;47.412;9.730;2022-09-09T16:41:11;8.40;;;1.42;;
48317;SDS011;34127;47.412;9.730;2022-09-09T16:43:37;4.45;;;1.42;;
48317;SDS011;34127;47.412;9.730;2022-09-09T16:46:14;3.50;;;1.40;;
48317;SDS011;34127;47.412;9.730;2022-09-09T16:48:41;3.70;;;1.70;;
48317;SDS011;34127;47.412;9.730;2022-09-09T16:51:09;3.00;;;1.48;;
48317;SDS011;34127;47.412;9.730;2022-09-09T16:53:39;3.25;;;1.40;;
48317;SDS011;34127;47.412;9.730;2022-09-09T16:56:07;5.30;;;1.65;;
48317;SDS011;34127;47.412;9.730;2022-09-09T16:58:34;5.50;;;1.63;;
48317;SDS011;34127;47.412;9.730;2022-09-09T17:01:00;3.85;;;1.65;;
48317;SDS011;34127;47.412;9.730;2022-09-09T17:03:28;5.18;;;2.10;;